Time;durP1;ratioP1;P1;durP2;ratioP2;P2;SDS_P1;SDS_P2;PMS_P1;PMS_P2;Temp;Humidity;BMP_temperature;BMP_pressure;BME280_temperature;BME280_humidity;BME280_pressure;Samples;Min_cycle;Max_cycle;Signal;HPM_P1;HPM_P2
2023/01/20 00:01:24;;;;;;;16.98;2.03;;;19.50;99.90;;;;;;5040080;28;20108;-67
2023/01/20 00:03:53;;;;;;;9.00;1.42;;;19.50;99.90;;;;;;5046789;28;20017;-68
2023/01/20 00:06:21;;;;;;;13.88;1.40;;;19.70;99.90;;;;;;5048916;28;20029;-69
2023/01/20 00:08:52;;;;;;;9.93;1.60;;;20.00;99.90;;;;;;5049268;28;20036;-70
2023/01/20 00:11:20;;;;;;;6.65;1.30;;;20.10;99.90;;;;;;5043120;28;20064;-69
2023/01/20 00:13:48;;;;;;;6.25;1.58;;;20.50;99.90;;;;;;5049335;28;20040;-70
2023/01/20 00:16:15;;;;;;;8.77;2.47;;;20.60;99.90;;;;;;5047954;28;20032;-69
2023/01/20 00:18:43;;;;;;;6.85;1.60;;;20.80;99.90;;;;;;5049802;28;20032;-69
2023/01/20 00:21:13;;;;;;;4.75;1.30;;;20.80;99.90;;;;;;5051297;28;20025;-68
2023/01/20 00:23:41;;;;;;;9.45;1.70;;;20.70;99.90;;;;;;5049716;28;20032;-68
2023/01/20 00:26:11;;;;;;;11.20;1.30;;;20.70;99.90;;;;;;5042530;28;20029;-71
2023/01/20 00:28:39;;;;;;;6.78;1.60;;;20.60;99.90;;;;;;5050987;28;20028;-70
2023/01/20 00:31:21;;;;;;;12.45;1.70;;;20.70;99.90;;;;;;5044258;28;20072;-71
2023/01/20 00:33:50;;;;;;;10.15;1.75;;;20.70;99.90;;;;;;5045720;28;20512;-70
2023/01/20 00:36:18;;;;;;;8.75;1.70;;;20.80;99.90;;;;;;5039436;28;20157;-69
2023/01/20 00:38:46;;;;;;;6.82;1.58;;;20.80;99.90;;;;;;5039392;28;20029;-68
2023/01/20 00:41:14;;;;;;;6.75;1.75;;;20.80;99.90;;;;;;5030630;28;20083;-69
2023/01/20 00:43:42;;;;;;;14.18;1.35;;;20.80;99.90;;;;;;5045351;28;20036;-69
2023/01/20 00:46:10;;;;;;;9.32;1.15;;;20.90;99.90;;;;;;5046570;28;20112;-69
2023/01/20 00:48:37;;;;;;;7.50;1.30;;;21.00;99.90;;;;;;5043439;28;20032;-69
2023/01/20 00:51:06;;;;;;;10.90;1.73;;;21.00;99.90;;;;;;5045700;28;20051;-69
2023/01/20 00:53:34;;;;;;;7.10;1.20;;;20.90;99.90;;;;;;5067803;28;20071;-69
2023/01/20 00:56:02;;;;;;;8.52;1.20;;;20.80;99.90;;;;;;5048165;28;20025;-69
2023/01/20 00:58:29;;;;;;;5.78;1.75;;;20.60;99.90;;;;;;5049711;28;20087;-69
2023/01/20 01:00:57;;;;;;;5.78;1.50;;;20.60;99.90;;;;;;5046467;28;20066;-69
2023/01/20 01:03:26;;;;;;;12.57;1.45;;;20.70;99.90;;;;;;5047351;28;20029;-69
2023/01/20 01:05:54;;;;;;;6.00;1.23;;;20.80;99.90;;;;;;5045429;28;20651;-72
2023/01/20 01:08:21;;;;;;;10.00;1.20;;;20.90;99.90;;;;;;5045569;28;20030;-69
2023/01/20 01:10:49;;;;;;;6.05;0.73;;;21.00;99.90;;;;;;5045728;28;20401;-68
2023/01/20 01:13:16;;;;;;;7.05;1.70;;;21.00;99.90;;;;;;5042607;28;20029;-71
2023/01/20 01:15:49;;;;;;;6.45;1.30;;;20.80;99.90;;;;;;5032097;28;20493;-68
2023/01/20 01:18:16;;;;;;;6.43;1.17;;;20.70;99.90;;;;;;5066575;28;20401;-68
2023/01/20 01:20:44;;;;;;;4.53;1.40;;;20.70;99.90;;;;;;5048378;28;20074;-68
2023/01/20 01:23:12;;;;;;;5.50;1.60;;;20.70;99.90;;;;;;5047264;28;20053;-68
2023/01/20 01:25:39;;;;;;;4.82;1.33;;;20.80;99.90;;;;;;5050147;28;20024;-69
2023/01/20 01:28:07;;;;;;;8.20;1.83;;;20.70;99.90;;;;;;5049708;28;20020;-68
2023/01/20 01:30:34;;;;;;;12.27;1.70;;;20.80;99.90;;;;;;5047675;28;20041;-68
2023/01/20 01:33:01;;;;;;;13.10;1.17;;;20.90;99.90;;;;;;5050143;28;20500;-71
2023/01/20 01:35:29;;;;;;;4.30;1.02;;;21.10;99.90;;;;;;5049700;28;20108;-68
2023/01/20 01:37:56;;;;;;;7.45;1.30;;;21.20;99.90;;;;;;5049958;28;20024;-68
2023/01/20 01:40:23;;;;;;;9.05;1.70;;;21.40;99.90;;;;;;5072636;28;20025;-69
2023/01/20 01:42:51;;;;;;;7.50;1.60;;;21.50;99.90;;;;;;5049254;28;20028;-69
2023/01/20 01:45:23;;;;;;;7.68;1.35;;;21.70;99.80;;;;;;5032887;28;20025;-69
2023/01/20 01:48:08;;;;;;;8.15;1.92;;;21.80;96.90;;;;;;5037603;28;20029;-69
2023/01/20 01:50:46;;;;;;;;;;;22.00;96.70;;;;;;5050329;28;20086;-69
2023/01/20 01:53:15;;;;;;;3.78;0.95;;;22.20;96.20;;;;;;5049439;28;19912;-69
2023/01/20 01:55:53;;;;;;;5.95;0.93;;;22.30;94.60;;;;;;5049546;28;20039;-70
2023/01/20 01:58:24;;;;;;;5.82;0.98;;;22.60;93.90;;;;;;5072874;28;20033;-70
2023/01/20 02:00:52;;;;;;;4.55;1.10;;;22.80;92.90;;;;;;5049269;28;20013;-70
2023/01/20 02:03:20;;;;;;;10.95;1.10;;;23.00;93.70;;;;;;5032941;28;20024;-70
2023/01/20 02:05:50;;;;;;;4.97;1.30;;;23.10;92.00;;;;;;5049566;28;20025;-72
2023/01/20 02:08:18;;;;;;;11.27;2.00;;;22.90;92.00;;;;;;5048977;28;20044;-71
2023/01/20 02:10:45;;;;;;;10.98;1.92;;;22.80;92.50;;;;;;5048043;28;20075;-71
2023/01/20 02:13:13;;;;;;;7.40;1.42;;;22.50;93.40;;;;;;5049641;28;20104;-70
2023/01/20 02:16:13;;;;;;;13.82;2.40;;;22.50;93.50;;;;;;5042592;28;20030;-68
2023/01/20 02:18:43;;;;;;;4.93;1.00;;;22.40;94.10;;;;;;5065078;28;20047;-69
2023/01/20 02:21:27;;;;;;;10.13;1.48;;;22.30;94.80;;;;;;5048179;28;20499;-70
2023/01/20 02:24:07;;;;;;;7.17;1.27;;;22.20;94.40;;;;;;5049055;28;20031;-71
2023/01/20 02:26:46;;;;;;;10.77;1.45;;;21.90;94.60;;;;;;5049055;28;20319;-71
2023/01/20 02:29:48;;;;;;;7.82;1.25;;;21.70;95.80;;;;;;5048993;28;20029;-71
2023/01/20 02:32:20;;;;;;;9.90;1.60;;;21.30;98.00;;;;;;5039997;28;20056;-71
2023/01/20 02:35:06;;;;;;;6.40;1.30;;;20.80;99.90;;;;;;5049265;28;20029;-71
2023/01/20 02:37:40;;;;;;;11.85;1.15;;;20.60;99.90;;;;;;5034498;28;20017;-71
2023/01/20 02:40:14;;;;;;;7.65;1.23;;;20.30;99.90;;;;;;5048214;28;20074;-71
2023/01/20 02:42:51;;;;;;;10.43;1.07;;;20.30;99.90;;;;;;5049031;28;20103;-70
2023/01/20 02:45:41;;;;;;;9.57;0.95;;;20.30;99.90;;;;;;5030595;28;20266;-71
2023/01/20 02:48:25;;;;;;;10.32;1.17;;;20.40;99.90;;;;;;5039922;28;20067;-71
2023/01/20 02:51:02;;;;;;;7.13;1.40;;;20.40;99.90;;;;;;5047263;28;20043;-69
2023/01/20 02:53:40;;;;;;;7.82;1.33;;;20.40;99.90;;;;;;5036896;28;20444;-70
2023/01/20 02:56:09;;;;;;;6.50;1.92;;;20.40;99.90;;;;;;5053315;28;20543;-69
2023/01/20 02:58:50;;;;;;;10.82;1.77;;;20.40;99.90;;;;;;5053160;28;20100;-70
2023/01/20 03:01:30;;;;;;;7.90;1.20;;;20.40;99.90;;;;;;5043812;28;20021;-70
2023/01/20 03:04:01;;;;;;;9.68;1.58;;;20.60;99.90;;;;;;5041840;28;20029;-70
2023/01/20 03:06:33;;;;;;;8.95;1.83;;;20.70;99.90;;;;;;5052868;28;20112;-71
2023/01/20 03:09:05;;;;;;;7.22;1.10;;;20.60;99.90;;;;;;5052872;28;20406;-70
2023/01/20 03:11:35;;;;;;;8.02;1.20;;;20.40;99.90;;;;;;5052502;28;20033;-71
2023/01/20 03:14:10;;;;;;;6.90;1.75;;;20.30;99.90;;;;;;5052952;28;20098;-71
2023/01/20 03:16:38;;;;;;;5.80;1.20;;;20.30;99.90;;;;;;5081407;28;20078;-69
2023/01/20 03:19:06;;;;;;;5.40;2.47;;;20.30;99.90;;;;;;5052644;28;20051;-69
2023/01/20 03:21:34;;;;;;;6.25;1.40;;;20.50;99.90;;;;;;5052260;28;20020;-70
2023/01/20 03:24:04;;;;;;;6.20;1.33;;;20.50;99.90;;;;;;5052606;28;20265;-70
2023/01/20 03:26:32;;;;;;;4.88;1.55;;;20.60;99.90;;;;;;5052319;28;20674;-70
2023/01/20 03:29:14;;;;;;;5.53;1.45;;;20.70;99.90;;;;;;5050879;28;20075;-69
2023/01/20 03:31:50;;;;;;;7.13;1.33;;;20.70;99.90;;;;;;5044844;28;20031;-70
2023/01/20 03:34:22;;;;;;;6.82;1.55;;;20.80;99.90;;;;;;5044122;28;20507;-71
2023/01/20 03:36:51;;;;;;;8.85;1.33;;;20.80;99.90;;;;;;5052096;28;20028;-71
2023/01/20 03:39:19;;;;;;;8.93;1.50;;;20.80;99.90;;;;;;5035752;28;20017;-71
2023/01/20 03:42:07;;;;;;;4.35;1.10;;;20.80;99.90;;;;;;5052154;28;20516;-71
2023/01/20 03:44:50;;;;;;;6.38;1.27;;;20.90;99.90;;;;;;5052081;28;20035;-72
2023/01/20 03:47:58;;;;;;;6.07;0.90;;;21.10;99.90;;;;;;5035347;28;20025;-72
2023/01/20 03:51:21;;;;;;;23.17;1.63;;;21.30;99.90;;;;;;5041774;28;20049;-71
2023/01/20 03:54:03;;;;;;;3.92;0.88;;;21.60;99.90;;;;;;5009849;28;20053;-70
2023/01/20 03:56:53;;;;;;;6.07;0.90;;;21.60;99.90;;;;;;5009902;28;20057;-71
2023/01/20 03:59:22;;;;;;;9.88;1.20;;;21.70;99.90;;;;;;5030541;28;20029;-70
2023/01/20 04:01:49;;;;;;;6.07;1.10;;;22.00;98.10;;;;;;5043712;28;20021;-72
2023/01/20 04:04:18;;;;;;;10.18;1.83;;;21.90;97.80;;;;;;5042690;28;20032;-71
2023/01/20 04:06:49;;;;;;;8.57;1.95;;;21.90;98.50;;;;;;5051670;28;20130;-72
2023/01/20 04:09:30;;;;;;;10.20;1.15;;;22.00;97.10;;;;;;5067280;28;20107;-72
2023/01/20 04:11:59;;;;;;;12.68;1.60;;;21.90;97.80;;;;;;5052108;28;20484;-71
2023/01/20 04:14:26;;;;;;;7.60;1.13;;;22.00;98.60;;;;;;5052251;28;20112;-71
2023/01/20 04:16:57;;;;;;;5.70;1.25;;;22.10;98.10;;;;;;5080011;28;20032;-69
2023/01/20 04:19:25;;;;;;;6.55;1.58;;;22.10;96.30;;;;;;5051779;28;20025;-70
2023/01/20 04:22:24;;;;;;;6.38;1.42;;;22.10;95.90;;;;;;5051026;28;20013;-70
2023/01/20 04:25:12;;;;;;;11.38;1.95;;;22.00;96.60;;;;;;5051539;28;20112;-69
2023/01/20 04:27:40;;;;;;;5.72;1.52;;;21.90;96.60;;;;;;5038166;28;20070;-69
2023/01/20 04:30:09;;;;;;;8.07;1.23;;;22.00;96.20;;;;;;5050760;28;20661;-69
2023/01/20 04:32:36;;;;;;;4.82;1.13;;;22.00;94.80;;;;;;5035513;28;20029;-69
2023/01/20 04:35:04;;;;;;;8.07;1.40;;;21.80;96.00;;;;;;5049158;28;20071;-69
2023/01/20 04:37:31;;;;;;;4.45;0.95;;;21.90;97.00;;;;;;5051133;28;20048;-70
2023/01/20 04:39:59;;;;;;;7.05;1.30;;;21.90;97.60;;;;;;5051177;28;20551;-70
2023/01/20 04:42:26;;;;;;;6.80;0.85;;;22.00;96.70;;;;;;5051002;28;20053;-71
2023/01/20 04:44:53;;;;;;;4.07;1.25;;;21.90;93.40;;;;;;5050475;28;20048;-71
2023/01/20 04:47:21;;;;;;;6.82;0.90;;;21.90;92.30;;;;;;5032719;28;20544;-71
2023/01/20 04:49:48;;;;;;;6.25;0.85;;;21.90;93.50;;;;;;5047044;28;20032;-71
2023/01/20 04:52:16;;;;;;;3.95;0.98;;;21.80;93.40;;;;;;5048194;28;20036;-70
2023/01/20 04:54:43;;;;;;;1.75;0.70;;;21.80;92.60;;;;;;5048284;28;20020;-70
2023/01/20 04:57:11;;;;;;;6.85;0.93;;;21.90;93.20;;;;;;5047300;28;20052;-70
2023/01/20 04:59:38;;;;;;;4.57;1.13;;;21.90;92.50;;;;;;5048122;28;20472;-71
2023/01/20 05:02:05;;;;;;;6.00;0.85;;;21.90;93.00;;;;;;5038098;28;20048;-72
2023/01/20 05:04:33;;;;;;;9.80;1.10;;;21.80;95.30;;;;;;5041666;28;20036;-71
2023/01/20 05:07:00;;;;;;;8.40;1.40;;;21.50;97.40;;;;;;5046328;28;20029;-72
2023/01/20 05:09:28;;;;;;;16.13;2.25;;;21.30;99.40;;;;;;5046786;28;20029;-71
2023/01/20 05:11:55;;;;;;;10.50;1.90;;;21.10;99.90;;;;;;5047642;28;20122;-72
2023/01/20 05:14:22;;;;;;;7.75;1.85;;;20.60;99.90;;;;;;5048016;28;20033;-71
2023/01/20 05:16:49;;;;;;;8.93;1.10;;;20.30;99.90;;;;;;5031361;28;20030;-70
2023/01/20 05:19:17;;;;;;;7.03;1.67;;;19.90;99.90;;;;;;5061907;28;20103;-70
2023/01/20 05:21:44;;;;;;;10.13;1.88;;;19.70;99.90;;;;;;5048392;28;20021;-70
2023/01/20 05:24:11;;;;;;;11.15;1.48;;;19.50;99.90;;;;;;5048986;28;20094;-71
2023/01/20 05:26:39;;;;;;;8.45;1.50;;;19.30;99.90;;;;;;5050650;28;20466;-71
2023/01/20 05:29:06;;;;;;;11.98;1.75;;;19.20;99.90;;;;;;5049944;28;20052;-71
2023/01/20 05:31:33;;;;;;;7.38;0.93;;;19.10;99.90;;;;;;5043911;28;20425;-70
2023/01/20 05:34:01;;;;;;;7.80;1.42;;;19.10;99.90;;;;;;5039753;28;20021;-72
2023/01/20 05:36:28;;;;;;;6.07;0.80;;;19.20;99.90;;;;;;5049706;28;20032;-70
2023/01/20 05:38:56;;;;;;;7.40;1.15;;;19.20;99.90;;;;;;5050003;28;20027;-71
2023/01/20 05:41:23;;;;;;;5.95;1.33;;;19.30;99.90;;;;;;5049831;28;20104;-72
2023/01/20 05:43:53;;;;;;;8.57;1.05;;;19.40;99.90;;;;;;5049712;28;20017;-72
2023/01/20 05:46:21;;;;;;;4.85;1.30;;;19.40;99.90;;;;;;5078670;28;20025;-72
2023/01/20 05:48:48;;;;;;;6.10;1.25;;;19.40;99.90;;;;;;5049852;28;20021;-72
2023/01/20 05:51:15;;;;;;;5.13;0.75;;;19.50;99.90;;;;;;5047804;28;20051;-71
2023/01/20 05:53:43;;;;;;;5.20;1.25;;;19.60;99.90;;;;;;5049677;28;20021;-71
2023/01/20 05:56:14;;;;;;;8.93;1.20;;;19.60;99.90;;;;;;5050236;28;20040;-72
2023/01/20 05:58:42;;;;;;;9.52;0.88;;;19.60;99.90;;;;;;5070160;28;20028;-72
2023/01/20 06:01:12;;;;;;;7.15;1.13;;;19.60;99.90;;;;;;5047257;28;20537;-73
2023/01/20 06:03:40;;;;;;;5.90;0.90;;;19.60;99.90;;;;;;5065200;28;20028;-72
2023/01/20 06:06:14;;;;;;;7.30;1.15;;;19.60;99.90;;;;;;5049836;28;20025;-72
2023/01/20 06:08:41;;;;;;;5.03;1.45;;;19.60;99.90;;;;;;5070675;28;20067;-72
2023/01/20 06:11:09;;;;;;;5.60;1.10;;;19.60;99.90;;;;;;5049466;28;20051;-72
2023/01/20 06:13:38;;;;;;;8.18;1.15;;;19.70;99.90;;;;;;5048190;28;20027;-72
2023/01/20 06:16:06;;;;;;;5.43;1.20;;;19.70;99.90;;;;;;5039051;28;20355;-72
2023/01/20 06:18:34;;;;;;;6.18;1.20;;;19.80;99.90;;;;;;5043121;28;20025;-72
2023/01/20 06:21:01;;;;;;;9.13;1.15;;;19.80;99.90;;;;;;5048913;28;20049;-72
2023/01/20 06:23:29;;;;;;;5.60;1.13;;;19.80;99.90;;;;;;5049097;28;20028;-71
2023/01/20 06:26:05;;;;;;;8.43;2.05;;;19.90;99.90;;;;;;5049029;28;20380;-69
2023/01/20 06:28:32;;;;;;;3.83;0.90;;;19.90;99.90;;;;;;5048896;28;20613;-69
2023/01/20 06:31:05;;;;;;;5.05;1.10;;;20.00;99.90;;;;;;5047338;28;20521;-69
2023/01/20 06:33:33;;;;;;;4.97;1.10;;;20.10;99.90;;;;;;5034779;28;20013;-69
2023/01/20 06:36:00;;;;;;;5.80;1.10;;;20.10;99.90;;;;;;5049070;28;20025;-69
2023/01/20 06:38:32;;;;;;;5.05;1.08;;;20.10;99.90;;;;;;5048879;28;20021;-68
2023/01/20 06:41:03;;;;;;;6.13;1.40;;;20.20;99.90;;;;;;5049010;28;20025;-68
2023/01/20 06:43:32;;;;;;;7.40;1.23;;;20.30;99.90;;;;;;5049122;28;20397;-70
2023/01/20 06:46:04;;;;;;;6.45;1.35;;;20.50;99.90;;;;;;5039493;28;20022;-69
2023/01/20 06:48:32;;;;;;;6.55;0.90;;;20.60;99.90;;;;;;5037249;28;20037;-68
2023/01/20 06:51:09;;;;;;;7.57;1.52;;;20.60;99.90;;;;;;5042010;28;20032;-67
2023/01/20 06:53:36;;;;;;;3.78;1.15;;;20.80;99.90;;;;;;5044501;28;20025;-67
2023/01/20 06:56:04;;;;;;;6.82;1.40;;;20.90;99.90;;;;;;5044430;28;20032;-68
2023/01/20 06:58:33;;;;;;;5.78;1.40;;;20.90;99.90;;;;;;5042971;28;20037;-68
2023/01/20 07:01:27;;;;;;;4.30;1.05;;;21.20;99.90;;;;;;5041691;28;20151;-67
2023/01/20 07:03:55;;;;;;;6.75;1.23;;;21.40;99.90;;;;;;5036540;28;20366;-67
2023/01/20 07:06:29;;;;;;;6.68;1.55;;;21.90;99.90;;;;;;5046179;28;20033;-67
2023/01/20 07:08:57;;;;;;;8.63;1.55;;;22.20;99.90;;;;;;5041703;28;20083;-70
2023/01/20 07:11:25;;;;;;;10.32;1.25;;;22.10;99.90;;;;;;5047132;28;20087;-67
2023/01/20 07:13:52;;;;;;;9.15;1.45;;;21.90;99.90;;;;;;5046171;28;20028;-68
2023/01/20 07:16:19;;;;;;;6.50;1.83;;;21.70;99.90;;;;;;5044069;28;20029;-68
2023/01/20 07:18:52;;;;;;;9.68;1.20;;;21.40;99.90;;;;;;5037931;28;20504;-68
2023/01/20 07:21:20;;;;;;;10.93;1.25;;;21.20;99.90;;;;;;5046831;28;20021;-68
2023/01/20 07:23:48;;;;;;;5.57;1.55;;;21.00;99.90;;;;;;5048529;28;20029;-68
2023/01/20 07:26:19;;;;;;;9.10;1.10;;;20.80;99.90;;;;;;5048060;28;20052;-67
2023/01/20 07:28:46;;;;;;;12.38;2.25;;;20.70;99.90;;;;;;5048567;28;20104;-67
2023/01/20 07:31:22;;;;;;;6.85;1.08;;;20.70;99.90;;;;;;5046543;28;20056;-67
2023/01/20 07:33:50;;;;;;;7.20;1.25;;;20.60;99.90;;;;;;5043474;28;20477;-68
2023/01/20 07:36:18;;;;;;;5.82;1.02;;;20.50;99.90;;;;;;5044025;28;20108;-67
2023/01/20 07:38:49;;;;;;;5.72;1.58;;;20.40;99.90;;;;;;5042520;28;20025;-67
2023/01/20 07:41:18;;;;;;;5.30;1.13;;;20.30;99.90;;;;;;5039196;28;20032;-67
2023/01/20 07:43:48;;;;;;;7.88;1.05;;;20.20;99.90;;;;;;5038610;28;20576;-68
2023/01/20 07:46:15;;;;;;;9.38;1.58;;;20.10;99.90;;;;;;5043233;28;20037;-67
2023/01/20 07:48:43;;;;;;;6.10;1.35;;;20.10;99.90;;;;;;5043302;28;20452;-66
2023/01/20 07:51:12;;;;;;;7.53;1.10;;;20.00;99.90;;;;;;5039569;28;20505;-67
2023/01/20 07:53:45;;;;;;;5.10;1.38;;;19.90;99.90;;;;;;5041518;28;20389;-67
2023/01/20 07:56:20;;;;;;;8.00;1.67;;;19.90;99.90;;;;;;5042468;28;20037;-66
2023/01/20 07:58:49;;;;;;;11.07;1.73;;;19.80;99.90;;;;;;5042137;28;20504;-68
2023/01/20 08:01:21;;;;;;;7.90;1.02;;;19.80;99.90;;;;;;5044185;28;20028;-67
2023/01/20 08:03:49;;;;;;;9.18;1.00;;;19.80;99.90;;;;;;5046954;28;20060;-66
2023/01/20 08:06:19;;;;;;;9.63;1.20;;;19.70;99.90;;;;;;5047812;28;20448;-67
2023/01/20 08:08:47;;;;;;;9.40;1.83;;;19.70;99.90;;;;;;5048042;28;20515;-67
2023/01/20 08:11:16;;;;;;;4.85;0.90;;;19.60;99.90;;;;;;5047096;28;20029;-66
2023/01/20 08:13:44;;;;;;;6.07;1.00;;;19.60;99.90;;;;;;5048396;28;20021;-66
2023/01/20 08:16:14;;;;;;;4.85;1.17;;;19.50;99.90;;;;;;5048904;28;20029;-67
2023/01/20 08:18:42;;;;;;;6.22;1.00;;;19.50;99.90;;;;;;5048451;28;20103;-67
2023/01/20 08:21:18;;;;;;;4.57;1.00;;;19.50;99.90;;;;;;5048768;28;20033;-67
2023/01/20 08:23:46;;;;;;;4.50;1.10;;;19.40;99.90;;;;;;5048545;28;20021;-66
2023/01/20 08:26:13;;;;;;;11.63;1.15;;;19.30;99.90;;;;;;5047678;28;20385;-66
2023/01/20 08:28:41;;;;;;;5.40;1.02;;;19.30;99.90;;;;;;5049109;28;20029;-67
2023/01/20 08:31:14;;;;;;;7.47;1.00;;;19.30;99.90;;;;;;5036704;28;20088;-67
2023/01/20 08:33:42;;;;;;;9.63;1.40;;;19.20;99.90;;;;;;5041990;28;20021;-67
2023/01/20 08:36:22;;;;;;;5.22;1.35;;;19.10;99.90;;;;;;5039382;28;20032;-67
2023/01/20 08:38:50;;;;;;;3.85;0.95;;;19.10;99.90;;;;;;5048535;28;20757;-66
2023/01/20 08:41:21;;;;;;;4.88;1.10;;;19.00;99.90;;;;;;5032084;28;20103;-67
2023/01/20 08:43:48;;;;;;;9.93;1.60;;;19.00;99.90;;;;;;5048771;28;20076;-66
2023/01/20 08:46:18;;;;;;;4.15;1.05;;;19.00;99.90;;;;;;5045350;28;20033;-68
2023/01/20 08:48:47;;;;;;;6.60;0.90;;;19.00;99.90;;;;;;5041075;28;20039;-70
2023/01/20 08:51:23;;;;;;;7.45;1.08;;;19.00;99.90;;;;;;5045875;28;20037;-69
2023/01/20 08:53:50;;;;;;;7.53;1.02;;;19.00;99.90;;;;;;5048345;28;20021;-69
2023/01/20 08:56:19;;;;;;;4.53;0.90;;;18.90;99.90;;;;;;5048169;28;20056;-68
2023/01/20 08:58:46;;;;;;;5.20;0.90;;;18.90;99.90;;;;;;5048163;28;20021;-70
2023/01/20 09:01:20;;;;;;;4.43;1.42;;;18.90;99.90;;;;;;5044969;28;20033;-68
2023/01/20 09:03:48;;;;;;;6.03;1.00;;;18.90;99.90;;;;;;5035609;28;20029;-69
2023/01/20 09:06:16;;;;;;;7.15;1.15;;;18.90;99.90;;;;;;5048119;28;20055;-69
2023/01/20 09:08:44;;;;;;;8.55;1.13;;;18.80;99.90;;;;;;5048026;28;20027;-68
2023/01/20 09:11:23;;;;;;;5.15;0.90;;;18.80;99.90;;;;;;5035471;28;20409;-70
2023/01/20 09:13:51;;;;;;;5.50;1.25;;;18.80;99.90;;;;;;5036144;28;20017;-69
2023/01/20 09:16:18;;;;;;;7.38;1.02;;;18.70;99.90;;;;;;5035730;28;20121;-69
2023/01/20 09:18:46;;;;;;;2.80;0.98;;;18.80;99.90;;;;;;5043533;28;20021;-68
2023/01/20 09:21:13;;;;;;;6.25;0.95;;;18.80;99.90;;;;;;5043804;28;20025;-68
2023/01/20 09:23:42;;;;;;;5.47;1.38;;;18.70;99.90;;;;;;5033471;28;20044;-68
2023/01/20 09:26:10;;;;;;;3.60;1.10;;;18.80;99.90;;;;;;5047590;28;20025;-69
2023/01/20 09:28:37;;;;;;;7.00;1.40;;;18.70;99.90;;;;;;5032234;28;20032;-69
2023/01/20 09:31:08;;;;;;;2.92;0.80;;;18.70;99.90;;;;;;5043626;28;20065;-69
2023/01/20 09:33:38;;;;;;;5.43;2.25;;;18.60;99.90;;;;;;5033502;28;20040;-69
2023/01/20 09:36:08;;;;;;;2.80;0.70;;;18.60;99.90;;;;;;5037355;28;20036;-70
2023/01/20 09:44:36;;;;;;;3.07;0.70;;;18.50;99.90;;;;;;5047498;28;20136;-69
2023/01/20 09:47:43;;;;;;;7.00;1.13;;;18.50;99.90;;;;;;5045156;28;20120;-70
2023/01/20 09:53:48;;;;;;;6.72;0.88;;;18.50;99.90;;;;;;5029073;28;20084;-69
2023/01/20 09:56:17;;;;;;;;;;;18.50;99.90;;;;;;5037986;28;20087;-68
2023/01/20 09:59:21;;;;;;;8.55;1.55;;;18.40;99.90;;;;;;5046962;28;19920;-69
2023/01/20 10:01:54;;;;;;;5.55;0.82;;;18.50;99.90;;;;;;5027686;28;20040;-69
2023/01/20 10:04:24;;;;;;;5.32;0.82;;;18.40;99.90;;;;;;5047151;28;20021;-69
2023/01/20 10:07:04;;;;;;;4.35;1.30;;;18.40;99.90;;;;;;5065700;28;20029;-69
2023/01/20 10:09:34;;;;;;;7.88;1.02;;;18.40;99.90;;;;;;5032192;28;20025;-68
2023/01/20 10:12:22;;;;;;;6.30;1.15;;;18.40;99.90;;;;;;5046689;28;20037;-69
2023/01/20 10:15:18;;;;;;;5.78;1.40;;;18.40;99.90;;;;;;5032909;28;20041;-69
2023/01/20 10:18:02;;;;;;;4.47;2.08;;;18.30;99.90;;;;;;5033085;28;20520;-69
2023/01/20 10:20:46;;;;;;;6.78;1.40;;;18.30;99.90;;;;;;5046611;28;20441;-70
2023/01/20 10:23:28;;;;;;;10.75;1.70;;;18.30;99.90;;;;;;5046935;28;20037;-69
2023/01/20 10:25:58;;;;;;;6.40;1.80;;;18.30;99.90;;;;;;5038136;28;20537;-69
2023/01/20 10:28:28;;;;;;;7.50;1.75;;;18.20;99.90;;;;;;5039092;28;20573;-67
2023/01/20 10:31:02;;;;;;;13.13;2.15;;;18.20;99.90;;;;;;5040313;28;20081;-68
2023/01/20 10:33:39;;;;;;;8.68;1.48;;;18.20;99.90;;;;;;5040631;28;20053;-68
2023/01/20 10:36:20;;;;;;;7.63;1.70;;;18.20;99.90;;;;;;5035703;28;20028;-66
2023/01/20 10:38:51;;;;;;;9.60;3.00;;;18.10;99.90;;;;;;5043046;28;20037;-68
2023/01/20 10:41:43;;;;;;;8.65;2.15;;;18.10;99.90;;;;;;5042341;28;20037;-66
2023/01/20 10:44:15;;;;;;;8.95;1.75;;;18.10;99.90;;;;;;5035928;28;20359;-68
2023/01/20 10:47:03;;;;;;;8.13;2.55;;;18.10;99.90;;;;;;5034034;28;20547;-66
2023/01/20 10:49:51;;;;;;;4.22;1.60;;;18.00;99.90;;;;;;5034771;28;20025;-68
2023/01/20 10:52:27;;;;;;;14.43;2.10;;;18.00;99.90;;;;;;5039429;28;20068;-68
2023/01/20 10:55:19;;;;;;;8.25;1.95;;;18.00;99.90;;;;;;5037527;28;20809;-67
2023/01/20 10:58:20;;;;;;;7.60;2.22;;;18.00;99.90;;;;;;5039968;28;20483;-67
2023/01/20 11:00:48;;;;;;;11.10;3.20;;;18.00;99.90;;;;;;5036297;28;20094;-67
2023/01/20 11:03:19;;;;;;;6.32;1.85;;;18.00;99.90;;;;;;5039451;28;20026;-67
2023/01/20 11:05:48;;;;;;;8.15;1.60;;;17.90;99.90;;;;;;5041438;28;20033;-67
2023/01/20 11:08:29;;;;;;;13.52;2.30;;;17.90;99.90;;;;;;5043123;28;20059;-68
2023/01/20 11:11:09;;;;;;;9.60;1.95;;;17.90;99.90;;;;;;5035603;28;20040;-67
2023/01/20 11:13:38;;;;;;;8.00;1.90;;;17.90;99.90;;;;;;5031478;28;20022;-68
2023/01/20 11:16:29;;;;;;;5.00;1.67;;;17.90;99.90;;;;;;5038494;28;20033;-67
2023/01/20 11:19:01;;;;;;;6.32;1.90;;;17.90;99.90;;;;;;5044353;28;20036;-67
2023/01/20 11:21:35;;;;;;;6.60;1.90;;;17.80;99.90;;;;;;5041535;28;20030;-67
2023/01/20 11:24:23;;;;;;;6.00;1.60;;;17.80;99.90;;;;;;5037791;28;20025;-65
2023/01/20 11:26:51;;;;;;;10.23;2.53;;;17.70;99.90;;;;;;5044015;28;20118;-67
2023/01/20 11:29:18;;;;;;;11.38;2.22;;;17.60;99.90;;;;;;5038218;28;20399;-68
2023/01/20 11:31:52;;;;;;;8.75;2.38;;;17.50;99.90;;;;;;5043380;28;20044;-67
2023/01/20 11:34:29;;;;;;;10.55;2.30;;;17.40;99.90;;;;;;5035227;28;20040;-67
2023/01/20 11:37:06;;;;;;;7.43;2.25;;;17.40;99.90;;;;;;5043192;28;20046;-67
2023/01/20 11:39:59;;;;;;;8.73;2.78;;;17.40;99.90;;;;;;5044937;28;20355;-67
2023/01/20 11:42:30;;;;;;;6.57;2.60;;;17.40;99.90;;;;;;5043378;28;20082;-67
2023/01/20 11:45:02;;;;;;;6.50;2.35;;;17.50;99.90;;;;;;5040029;28;20033;-67
2023/01/20 11:47:32;;;;;;;7.45;1.85;;;17.50;99.90;;;;;;5044772;28;20029;-68
2023/01/20 11:50:09;;;;;;;15.45;3.05;;;17.50;99.90;;;;;;5035122;28;20767;-67
2023/01/20 11:52:37;;;;;;;5.90;2.20;;;17.50;99.90;;;;;;5040007;28;20527;-68
2023/01/20 11:55:24;;;;;;;7.82;1.92;;;17.50;99.90;;;;;;5040644;28;20501;-68
2023/01/20 11:57:59;;;;;;;9.48;2.60;;;17.60;99.90;;;;;;5044304;28;20135;-68
2023/01/20 12:00:26;;;;;;;8.25;1.83;;;17.60;99.90;;;;;;5039660;28;20033;-67
2023/01/20 12:02:58;;;;;;;9.32;1.60;;;17.50;99.90;;;;;;5041505;28;20092;-67
2023/01/20 12:05:53;;;;;;;7.82;1.88;;;17.50;99.90;;;;;;5038280;28;20048;-67
2023/01/20 12:08:34;;;;;;;9.05;1.73;;;17.50;99.90;;;;;;5035570;28;20032;-68
2023/01/20 12:11:06;;;;;;;7.78;1.63;;;17.50;99.90;;;;;;5046215;28;20425;-67
2023/01/20 12:16:30;;;;;;;5.90;1.95;;;17.50;99.90;;;;;;5047158;28;20106;-67
2023/01/20 12:19:03;;;;;;;10.35;1.50;;;17.50;99.90;;;;;;5046524;28;20224;-67
2023/01/20 12:21:46;;;;;;;9.00;2.58;;;17.50;99.90;;;;;;5046305;28;20047;-67
2023/01/20 12:25:09;;;;;;;10.98;2.05;;;17.50;99.90;;;;;;5043755;28;20032;-67
2023/01/20 12:27:57;;;;;;;9.80;3.08;;;17.50;99.90;;;;;;5005746;28;20053;-67
2023/01/20 12:30:31;;;;;;;7.20;1.45;;;17.60;99.90;;;;;;5000220;28;20054;-67
2023/01/20 12:32:59;;;;;;;10.00;1.75;;;17.60;99.90;;;;;;5037972;28;20464;-67
2023/01/20 12:35:33;;;;;;;7.70;1.65;;;17.60;99.90;;;;;;5047727;28;20013;-67
2023/01/20 12:38:07;;;;;;;10.07;2.22;;;17.60;99.90;;;;;;5047623;28;20508;-67
2023/01/20 12:41:06;;;;;;;6.60;1.70;;;17.60;99.90;;;;;;5047493;28;20033;-68
2023/01/20 12:44:10;;;;;;;7.35;1.55;;;17.60;99.90;;;;;;5044380;28;20087;-66
2023/01/20 12:46:49;;;;;;;6.85;1.65;;;17.60;99.90;;;;;;5046957;28;20025;-68
2023/01/20 12:49:54;;;;;;;9.55;2.92;;;17.60;99.90;;;;;;5047389;28;20016;-68
2023/01/20 12:52:46;;;;;;;9.27;2.85;;;17.60;99.90;;;;;;5012001;28;20540;-67
2023/01/20 12:55:31;;;;;;;9.52;1.85;;;17.70;99.90;;;;;;5045541;28;20480;-68
2023/01/20 12:58:19;;;;;;;12.43;2.72;;;17.70;99.90;;;;;;5047202;28;20025;-67
2023/01/20 13:01:21;;;;;;;9.05;2.40;;;17.60;99.90;;;;;;5047118;28;20048;-67
2023/01/20 13:04:21;;;;;;;7.97;1.42;;;17.70;99.90;;;;;;5047168;28;20524;-67
2023/01/20 13:07:26;;;;;;;10.35;1.88;;;17.70;99.90;;;;;;5047610;28;20374;-68
2023/01/20 13:09:56;;;;;;;9.07;2.07;;;17.60;99.90;;;;;;5045723;28;20037;-68
2023/01/20 13:12:40;;;;;;;8.70;1.63;;;17.50;99.90;;;;;;5048958;28;20286;-67
2023/01/20 13:15:23;;;;;;;5.70;1.70;;;17.60;99.90;;;;;;5045111;28;20500;-68
2023/01/20 13:18:06;;;;;;;5.78;1.83;;;17.50;99.90;;;;;;5046201;28;20111;-67
2023/01/20 13:20:37;;;;;;;8.98;2.13;;;17.50;99.90;;;;;;5050477;28;20040;-67
2023/01/20 13:23:08;;;;;;;8.52;1.95;;;17.50;99.90;;;;;;5050514;28;20028;-67
2023/01/20 13:25:37;;;;;;;7.90;1.65;;;17.50;99.90;;;;;;5050821;28;20041;-67
2023/01/20 13:28:06;;;;;;;10.55;2.30;;;17.50;99.90;;;;;;5050626;28;20021;-68
2023/01/20 13:30:49;;;;;;;7.50;1.48;;;17.50;99.90;;;;;;5048607;28;20080;-67